Language: 


Des rapports , des résumés tant et plus, au choix de chacun....


Données statistiques de la station
Quotidien Rapport Novembre 18, 2017 Unités:  Métrique    Anglais   les deux
« Précédent Jour
Suivant Jour »
Quotidien Hebdomadaire Mensuel Annuel Actuel
  Haut: Bas: Moyen:
Température: 10.7 °C -0.5 °C 4.5 °C
Pt de rosée: 9.0 °C -1.0 °C 4.2 °C
Humidité: 98 % 0 % 96 %
Vitesse du vent: 10.5 km/h 0.0 km/h 4 km/h
Rafales: 10.5 km/h - -
Vent:- - WSW
Pression: 1026.0 hPa 0.0 hPa -
Précipitation: 4.1 mm    
Historical Graphs
 
 
Données statistiques pour Novembre 18, 2017
Heure Température Point de rosée Pression Vent Vitesse du vent Refales Humidité Pluie (taux horaire)
00:02 1.4 °C 1.0 °C 1026.0 hPa Calm     98 % 0.0 mm
00:09 1.4 °C 1.0 °C 1026.0 hPa Calm     98 % 0.0 mm
00:14 1.4 °C 1.0 °C 1026.0 hPa Calm     98 % 0.0 mm
00:19 1.5 °C 2.0 °C 1026.0 hPa Calm     98 % 0.0 mm
00:24 1.4 °C 1.0 °C 1026.0 hPa Calm     98 % 0.0 mm
00:29 1.3 °C 1.0 °C 1026.0 hPa Calm     98 % 0.0 mm
00:34 1.3 °C 1.0 °C 1026.0 hPa Calm     98 % 0.0 mm
00:39 1.3 °C 1.0 °C 1026.0 hPa Calm     98 % 0.0 mm
00:44 0.9 °C 1.0 °C 1026.0 hPa Calm     98 % 0.0 mm
00:49 0.6 °C 1.0 °C 1026.0 hPa Calm     98 % 0.0 mm
00:54 0.6 °C 1.0 °C 1026.0 hPa Calm     98 % 0.0 mm
00:59 0.5 °C 1.0 °C 1026.0 hPa Calm     98 % 0.0 mm
01:00 0.5 °C 1.0 °C 1026.0 hPa Calm     98 % 0.0 mm
01:04 0.4 °C 1.0 °C 1026.0 hPa Calm     98 % 0.0 mm
01:09 0.4 °C 1.0 °C 1026.0 hPa Calm     98 % 0.0 mm
01:14 0.4 °C 1.0 °C 1026.0 hPa Calm     98 % 0.0 mm
01:19 0.3 °C 1.0 °C 1026.0 hPa Calm     98 % 0.0 mm
01:24 0.3 °C 1.0 °C 1026.0 hPa Calm     98 % 0.0 mm
01:29 0.3 °C 1.0 °C 1024.9 hPa Calm     98 % 0.0 mm
01:34 0.4 °C 1.0 °C 1024.9 hPa Calm     98 % 0.0 mm
01:39 0.3 °C 1.0 °C 1024.9 hPa Calm     98 % 0.0 mm
01:44 0.2 °C 0.0 °C 1023.9 hPa Calm     98 % 0.0 mm
01:49 0.2 °C 0.0 °C 1023.9 hPa Calm     98 % 0.0 mm
01:54 0.4 °C 1.0 °C 1023.9 hPa Calm     98 % 0.0 mm
01:59 0.6 °C 1.0 °C 1024.9 hPa Calm     98 % 0.0 mm
02:04 0.6 °C 1.0 °C 1024.9 hPa Calm     98 % 0.0 mm
02:09 0.5 °C 1.0 °C 1024.9 hPa Calm     98 % 0.0 mm
02:15 0.4 °C 1.0 °C 1024.9 hPa Calm     98 % 0.0 mm
02:20 0.6 °C 1.0 °C 1024.9 hPa Calm     98 % 0.0 mm
02:25 0.6 °C 1.0 °C 1024.9 hPa Calm     98 % 0.0 mm
02:30 0.7 °C 1.0 °C 1024.9 hPa Calm     98 % 0.0 mm
02:35 0.7 °C 1.0 °C 1024.9 hPa Calm     98 % 0.0 mm
02:40 0.6 °C 1.0 °C 1024.9 hPa Calm     98 % 0.0 mm
02:45 0.4 °C 1.0 °C 1024.9 hPa Calm     98 % 0.0 mm
02:50 0.4 °C 1.0 °C 1024.9 hPa Calm     98 % 0.0 mm
02:55 0.4 °C 1.0 °C 1024.9 hPa Calm     98 % 0.0 mm
03:02 0.0 °C 1.0 °C 0.0 hPa Calm     0 % 0.0 mm
03:07 0.4 °C 1.0 °C 1024.9 hPa Calm     98 % 0.0 mm
03:12 0.3 °C 1.0 °C 1024.9 hPa Calm     98 % 0.0 mm
03:25 0.1 °C 0.0 °C 1024.9 hPa Calm     98 % 0.0 mm
03:30 0.2 °C 0.0 °C 1024.9 hPa Calm     98 % 0.0 mm
03:35 0.3 °C 1.0 °C 1024.9 hPa Calm     98 % 0.0 mm
03:40 0.3 °C 1.0 °C 1024.9 hPa Calm     98 % 0.0 mm
03:45 0.4 °C 1.0 °C 1023.9 hPa Calm     98 % 0.0 mm
03:50 0.4 °C 1.0 °C 1023.9 hPa Calm     98 % 0.0 mm
03:55 0.4 °C 1.0 °C 1023.9 hPa Calm     98 % 0.0 mm
04:00 0.3 °C 1.0 °C 1023.9 hPa Calm     98 % 0.0 mm
04:05 0.3 °C 1.0 °C 1023.9 hPa Calm     98 % 0.0 mm
04:10 0.1 °C 0.0 °C 1023.9 hPa Calm     98 % 0.0 mm
04:16 0.0 °C -1.0 °C 1023.9 hPa Calm     98 % 0.0 mm
04:21 0.0 °C -1.0 °C 1023.9 hPa Calm     98 % 0.0 mm
04:25 0.0 °C -1.0 °C 1023.9 hPa Calm     98 % 0.0 mm
04:26 0.0 °C -1.0 °C 1023.9 hPa Calm     98 % 0.0 mm
04:27 0.0 °C -1.0 °C 1023.9 hPa Calm     98 % 0.0 mm
04:36 -0.3 °C -1.0 °C 1023.9 hPa Calm     98 % 0.0 mm
04:41 -0.3 °C -1.0 °C 1022.9 hPa Calm     98 % 0.0 mm
04:46 -0.4 °C -1.0 °C 1022.9 hPa Calm     98 % 0.0 mm
04:51 -0.4 °C -1.0 °C 1022.9 hPa Calm     98 % 0.0 mm
04:56 -0.5 °C -1.0 °C 1022.9 hPa Calm     98 % 0.0 mm
05:01 -0.5 °C -1.0 °C 1022.9 hPa Calm     98 % 0.0 mm
05:06 -0.5 °C -1.0 °C 1022.9 hPa Calm     98 % 0.0 mm
05:11 -0.5 °C -1.0 °C 1022.9 hPa Calm     98 % 0.0 mm
05:16 -0.4 °C -1.0 °C 1022.9 hPa Calm     98 % 0.0 mm
05:21 -0.4 °C -1.0 °C 1022.9 hPa Calm     98 % 0.0 mm
05:26 -0.3 °C -1.0 °C 1022.9 hPa Calm     98 % 0.0 mm
05:31 -0.2 °C -1.0 °C 1022.9 hPa Calm     98 % 0.0 mm
05:36 0.0 °C -1.0 °C 1022.9 hPa Calm     98 % 0.0 mm
05:41 0.0 °C -1.0 °C 1022.9 hPa Calm     98 % 0.0 mm
05:46 0.1 °C 0.0 °C 1022.9 hPa Calm     98 % 0.0 mm
05:51 0.0 °C -1.0 °C 1022.9 hPa Calm     98 % 0.0 mm
05:56 -0.1 °C -1.0 °C 1021.9 hPa Calm     98 % 0.0 mm
06:01 -0.1 °C -1.0 °C 1021.9 hPa Calm     98 % 0.0 mm
06:06 -0.2 °C -1.0 °C 1021.9 hPa Calm     98 % 0.0 mm
06:11 -0.4 °C -1.0 °C 1022.9 hPa Calm     98 % 0.0 mm
06:16 -0.4 °C -1.0 °C 1022.9 hPa Calm     98 % 0.0 mm
06:21 -0.4 °C -1.0 °C 1022.9 hPa Calm     98 % 0.0 mm
06:26 -0.4 °C -1.0 °C 1022.9 hPa Calm     98 % 0.0 mm
06:31 -0.4 °C -1.0 °C 1022.9 hPa Calm     98 % 0.0 mm
06:36 -0.4 °C -1.0 °C 1022.9 hPa Calm     98 % 0.0 mm
06:41 -0.5 °C -1.0 °C 1022.9 hPa Calm     98 % 0.0 mm
06:46 -0.4 °C -1.0 °C 1022.9 hPa Calm     98 % 0.0 mm
06:51 -0.3 °C -1.0 °C 1022.9 hPa Calm     98 % 0.0 mm
06:56 -0.2 °C -1.0 °C 1022.9 hPa Calm     98 % 0.0 mm
07:01 -0.2 °C -1.0 °C 1022.9 hPa Calm     98 % 0.0 mm
07:06 0.0 °C -1.0 °C 1022.9 hPa Calm     98 % 0.0 mm
07:11 0.1 °C 0.0 °C 1022.9 hPa Calm     98 % 0.0 mm
07:16 0.2 °C 0.0 °C 1022.9 hPa Calm     98 % 0.0 mm
07:21 0.3 °C 1.0 °C 1022.9 hPa Calm     98 % 0.0 mm
07:27 0.4 °C 1.0 °C 1022.9 hPa Calm     98 % 0.0 mm
07:32 0.4 °C 1.0 °C 1022.9 hPa Calm     98 % 0.0 mm
07:37 0.5 °C 1.0 °C 1022.9 hPa Calm     98 % 0.0 mm
07:42 0.5 °C 1.0 °C 1022.9 hPa Calm     98 % 0.0 mm
07:47 0.6 °C 1.0 °C 1022.9 hPa Calm     98 % 0.0 mm
07:52 0.7 °C 1.0 °C 1022.9 hPa Calm     98 % 0.0 mm
07:57 0.7 °C 1.0 °C 1022.9 hPa Calm     98 % 0.0 mm
08:02 0.8 °C 1.0 °C 1022.9 hPa Calm     98 % 0.0 mm
08:07 0.8 °C 1.0 °C 1022.9 hPa Calm     98 % 0.0 mm
08:12 0.9 °C 1.0 °C 1022.9 hPa Calm     98 % 0.0 mm
08:17 0.9 °C 1.0 °C 1022.9 hPa Calm     98 % 0.0 mm
08:22 0.9 °C 1.0 °C 1022.9 hPa Calm     98 % 0.0 mm
08:27 0.9 °C 1.0 °C 1022.9 hPa Calm     98 % 0.0 mm
08:32 1.0 °C 1.0 °C 1022.9 hPa Calm     98 % 0.0 mm
08:37 1.0 °C 1.0 °C 1022.9 hPa Calm     98 % 0.0 mm
08:42 1.1 °C 1.0 °C 1021.9 hPa Calm     98 % 0.0 mm
08:47 1.1 °C 1.0 °C 1021.9 hPa Calm     98 % 0.0 mm
08:52 1.2 °C 1.0 °C 1021.9 hPa Calm     98 % 0.0 mm
08:57 1.3 °C 1.0 °C 1022.9 hPa Calm     98 % 0.0 mm
09:02 1.4 °C 1.0 °C 1022.9 hPa Calm     98 % 0.0 mm
09:07 1.5 °C 2.0 °C 1022.9 hPa Calm     98 % 0.0 mm
09:12 1.5 °C 2.0 °C 1022.9 hPa Calm     98 % 0.0 mm
09:17 1.7 °C 2.0 °C 1022.9 hPa Calm     98 % 0.0 mm
09:22 1.9 °C 2.0 °C 1022.9 hPa Calm     98 % 0.0 mm
09:27 1.9 °C 2.0 °C 1022.9 hPa Calm     98 % 0.0 mm
09:32 1.9 °C 2.0 °C 1022.9 hPa Calm     98 % 0.0 mm
09:37 1.9 °C 2.0 °C 1022.9 hPa Calm     98 % 0.0 mm
09:42 1.9 °C 2.0 °C 1022.9 hPa Calm     98 % 0.0 mm
09:47 1.9 °C 2.0 °C 1022.9 hPa Calm     98 % 0.0 mm
09:52 1.9 °C 2.0 °C 1022.9 hPa Calm     98 % 0.0 mm
09:57 1.9 °C 2.0 °C 1022.9 hPa Calm     98 % 0.0 mm
10:02 1.9 °C 2.0 °C 1022.9 hPa Calm     98 % 0.0 mm
10:07 1.9 °C 2.0 °C 1022.9 hPa Calm     98 % 0.0 mm
10:12 1.9 °C 2.0 °C 1022.9 hPa Calm     98 % 0.0 mm
10:17 1.9 °C 2.0 °C 1022.9 hPa Calm     98 % 0.0 mm
10:22 1.9 °C 2.0 °C 1022.9 hPa Calm     98 % 0.0 mm
10:27 1.9 °C 2.0 °C 1023.9 hPa Calm     98 % 0.0 mm
10:32 1.9 °C 2.0 °C 1023.9 hPa Calm     98 % 0.0 mm
10:37 1.9 °C 2.0 °C 1023.9 hPa Calm     98 % 0.0 mm
10:42 1.9 °C 2.0 °C 1022.9 hPa Calm     98 % 0.0 mm
10:47 1.9 °C 2.0 °C 1022.9 hPa Calm     98 % 0.0 mm
10:53 1.9 °C 2.0 °C 1022.9 hPa Calm     98 % 0.0 mm
10:58 1.9 °C 2.0 °C 1022.9 hPa Calm     98 % 0.0 mm
11:03 1.9 °C 2.0 °C 1022.9 hPa Calm     98 % 0.3 mm
11:08 1.9 °C 2.0 °C 1022.9 hPa Calm     98 % 0.3 mm
11:13 1.9 °C 2.0 °C 1022.9 hPa Calm     98 % 0.3 mm
11:18 1.9 °C 2.0 °C 1022.9 hPa Calm     98 % 0.3 mm
11:23 1.9 °C 2.0 °C 1022.9 hPa Calm     98 % 0.3 mm
11:28 1.9 °C 2.0 °C 1022.9 hPa Calm     98 % 0.3 mm
11:33 1.9 °C 2.0 °C 1022.9 hPa Calm     98 % 0.3 mm
11:35 1.9 °C 2.0 °C 1022.9 hPa Calm     98 % 0.3 mm
11:40 1.9 °C 2.0 °C 1021.9 hPa Calm     98 % 0.3 mm
11:46 1.9 °C 2.0 °C 1021.9 hPa Calm     98 % 0.3 mm
11:51 1.9 °C 2.0 °C 1021.9 hPa Calm     98 % 0.3 mm
11:56 1.9 °C 2.0 °C 1021.9 hPa Calm     98 % 0.3 mm
12:01 1.9 °C 2.0 °C 1021.9 hPa Calm     98 % 0.0 mm
12:06 1.9 °C 2.0 °C 1021.9 hPa Calm     98 % 0.0 mm
12:11 1.9 °C 2.0 °C 1021.9 hPa Calm     98 % 0.0 mm
12:16 1.9 °C 2.0 °C 1021.9 hPa Calm     98 % 0.0 mm
12:17 1.9 °C 2.0 °C 1021.9 hPa Calm     98 % 0.0 mm
12:22 1.9 °C 2.0 °C 1021.9 hPa Calm     98 % 0.0 mm
12:27 9.3 °C 7.0 °C 1021.9 hPa Calm     82 % 0.0 mm
12:32 9.3 °C 7.0 °C 1021.9 hPa Calm     82 % 0.0 mm
12:37 9.3 °C 7.0 °C 1021.9 hPa Calm     82 % 0.0 mm
12:42 9.3 °C 7.0 °C 1020.9 hPa Calm     82 % 0.0 mm
12:47 9.3 °C 7.0 °C 1020.9 hPa Calm     82 % 0.0 mm
12:52 9.3 °C 7.0 °C 1020.9 hPa Calm     82 % 0.0 mm
12:57 9.3 °C 7.0 °C 1020.9 hPa Calm     82 % 0.0 mm
13:02 9.3 °C 7.0 °C 1020.9 hPa Calm     82 % 0.0 mm
13:08 9.3 °C 7.0 °C 1020.9 hPa Calm     82 % 0.0 mm
13:13 10.7 °C 7.0 °C 1020.9 hPa Calm     77 % 0.0 mm
13:18 10.6 °C 7.0 °C 1020.9 hPa Calm     77 % 0.0 mm
13:23 10.6 °C 7.0 °C 1020.9 hPa Calm     77 % 0.0 mm
13:28 10.4 °C 7.0 °C 1020.9 hPa Calm     77 % 0.0 mm
13:33 10.4 °C 6.0 °C 1020.9 hPa Calm     76 % 0.0 mm
13:38 10.3 °C 6.0 °C 1020.9 hPa Calm     76 % 0.0 mm
13:43 10.3 °C 6.0 °C 1020.9 hPa Calm     76 % 0.0 mm
13:48 10.2 °C 7.0 °C 1020.9 hPa Calm     77 % 0.0 mm
13:53 10.2 °C 7.0 °C 1020.9 hPa Calm     78 % 0.0 mm
13:58 10.1 °C 6.0 °C 1020.9 hPa Calm     78 % 0.0 mm
14:03 10.1 °C 7.0 °C 1020.9 hPa Calm     79 % 0.0 mm
14:08 10.1 °C 7.0 °C 1020.9 hPa Calm     80 % 0.0 mm
14:13 10.0 °C 7.0 °C 1020.9 hPa Calm     80 % 0.0 mm
14:18 10.0 °C 7.0 °C 1020.9 hPa Calm     81 % 0.0 mm
14:23 10.0 °C 7.0 °C 1020.9 hPa Calm     81 % 0.0 mm
14:28 10.0 °C 7.0 °C 1020.9 hPa Calm     81 % 0.0 mm
14:33 9.9 °C 7.0 °C 1020.9 hPa Calm     82 % 0.0 mm
14:38 9.9 °C 7.0 °C 1020.9 hPa Calm     82 % 0.0 mm
14:42 9.9 °C 7.0 °C 1020.9 hPa Calm     83 % 0.0 mm
14:47 9.9 °C 7.0 °C 1020.9 hPa Calm     83 % 0.0 mm
14:52 9.9 °C 8.0 °C 1020.9 hPa Calm     84 % 0.0 mm
14:57 9.8 °C 7.0 °C 1019.9 hPa WSW 10.1 km/h 10.1 km/h 84 % 0.0 mm
15:03 9.7 °C 7.0 °C 1019.9 hPa WSW 10.1 km/h 10.1 km/h 84 % 0.0 mm
15:08 9.7 °C 8.0 °C 1019.9 hPa WSW 10.1 km/h 10.1 km/h 85 % 0.0 mm
15:13 9.6 °C 8.0 °C 1019.9 hPa WSW 10.1 km/h 10.1 km/h 85 % 0.0 mm
15:18 9.4 °C 8.0 °C 1019.9 hPa WSW 10.1 km/h 10.1 km/h 88 % 0.0 mm
15:23 9.3 °C 8.0 °C 1019.9 hPa WSW 10.1 km/h 10.1 km/h 90 % 0.0 mm
15:28 9.1 °C 8.0 °C 1019.9 hPa WSW 10.1 km/h 10.1 km/h 91 % 0.0 mm
15:33 9.0 °C 8.0 °C 1019.9 hPa WSW 10.1 km/h 10.1 km/h 93 % 0.0 mm
15:38 8.9 °C 8.0 °C 1019.9 hPa WSW 10.1 km/h 10.1 km/h 93 % 0.0 mm
15:43 8.8 °C 9.0 °C 1019.9 hPa WSW 10.1 km/h 10.1 km/h 95 % 0.0 mm
15:48 8.8 °C 9.0 °C 1019.9 hPa WSW 10.1 km/h 10.1 km/h 96 % 0.0 mm
15:53 8.7 °C 9.0 °C 1019.9 hPa WSW 10.1 km/h 10.1 km/h 96 % 0.0 mm
15:58 8.7 °C 9.0 °C 1018.8 hPa WSW 10.1 km/h 10.1 km/h 97 % 0.0 mm
16:03 8.7 °C 9.0 °C 1018.8 hPa WSW 10.5 km/h 10.5 km/h 97 % 0.0 mm
16:10 8.7 °C 9.0 °C 1018.8 hPa WSW 10.5 km/h 10.5 km/h 97 % 0.0 mm
16:15 8.5 °C 9.0 °C 1018.8 hPa WSW 10.5 km/h 10.5 km/h 98 % 0.3 mm
16:20 8.5 °C 9.0 °C 1018.8 hPa WSW 10.5 km/h 10.5 km/h 98 % 0.3 mm
16:25 8.5 °C 9.0 °C 1018.8 hPa WSW 10.5 km/h 10.5 km/h 98 % 0.3 mm
16:30 8.5 °C 9.0 °C 1018.8 hPa WSW 10.5 km/h 10.5 km/h 98 % 0.5 mm
16:35 8.5 °C 9.0 °C 1018.8 hPa WSW 10.5 km/h 10.5 km/h 98 % 0.5 mm
16:40 8.5 °C 9.0 °C 1018.8 hPa WSW 10.5 km/h 10.5 km/h 98 % 0.5 mm
16:45 8.5 °C 9.0 °C 1018.8 hPa WSW 10.5 km/h 10.5 km/h 98 % 0.5 mm
16:50 8.5 °C 9.0 °C 1018.8 hPa WSW 10.5 km/h 10.5 km/h 98 % 1.0 mm
16:55 8.5 °C 9.0 °C 1018.8 hPa WSW 10.5 km/h 10.5 km/h 98 % 1.3 mm
17:00 8.5 °C 9.0 °C 1018.8 hPa WSW 10.5 km/h 10.5 km/h 98 % 1.5 mm
17:05 8.5 °C 9.0 °C 1018.8 hPa WSW 10.5 km/h 10.5 km/h 98 % 1.5 mm
17:10 8.5 °C 9.0 °C 1018.2 hPa WSW 10.5 km/h 10.5 km/h 98 % 1.5 mm
17:15 8.5 °C 9.0 °C 1018.2 hPa WSW 10.5 km/h 10.5 km/h 98 % 1.3 mm
17:20 8.5 °C 9.0 °C 1018.2 hPa WSW 10.5 km/h 10.5 km/h 98 % 1.3 mm
17:25 8.5 °C 9.0 °C 1018.8 hPa WSW 10.5 km/h 10.5 km/h 98 % 1.8 mm
17:30 8.5 °C 9.0 °C 1018.8 hPa WSW 10.5 km/h 10.5 km/h 98 % 1.5 mm
17:35 8.5 °C 9.0 °C 1018.8 hPa WSW 10.5 km/h 10.5 km/h 98 % 1.5 mm
17:36 8.5 °C 9.0 °C 1018.8 hPa WSW 10.5 km/h 10.5 km/h 98 % 1.5 mm
17:41 8.6 °C 9.0 °C 1018.8 hPa WSW 10.5 km/h 10.5 km/h 98 % 1.5 mm
17:46 8.6 °C 9.0 °C 1018.8 hPa WSW 10.5 km/h 10.5 km/h 98 % 2.3 mm
17:51 8.5 °C 9.0 °C 1018.8 hPa WSW 10.5 km/h 10.5 km/h 98 % 1.8 mm
17:56 8.6 °C 9.0 °C 1018.8 hPa WSW 10.5 km/h 10.5 km/h 98 % 1.5 mm
18:01 8.6 °C 9.0 °C 1018.8 hPa WSW 10.5 km/h 10.5 km/h 98 % 1.3 mm
18:06 8.6 °C 9.0 °C 1018.8 hPa WSW 10.5 km/h 10.5 km/h 98 % 1.3 mm
18:12 8.6 °C 9.0 °C 1018.8 hPa WSW 10.5 km/h 10.5 km/h 98 % 1.3 mm
18:17 8.6 °C 9.0 °C 1018.8 hPa WSW 10.5 km/h 10.5 km/h 98 % 1.3 mm
18:22 8.6 °C 9.0 °C 1018.8 hPa WSW 10.5 km/h 10.5 km/h 98 % 0.8 mm
18:27 8.6 °C 9.0 °C 1018.8 hPa WSW 10.5 km/h 10.5 km/h 98 % 1.0 mm
18:32 8.6 °C 9.0 °C 1018.8 hPa WSW 10.5 km/h 10.5 km/h 98 % 1.0 mm
18:37 8.7 °C 9.0 °C 1018.8 hPa WSW 10.5 km/h 10.5 km/h 98 % 1.0 mm
18:42 8.8 °C 9.0 °C 1018.8 hPa WSW 10.5 km/h 10.5 km/h 98 % 1.0 mm
18:47 8.7 °C 9.0 °C 1018.8 hPa WSW 10.5 km/h 10.5 km/h 98 % 0.3 mm
18:52 8.7 °C 9.0 °C 1018.8 hPa WSW 10.5 km/h 10.5 km/h 98 % 0.3 mm
18:57 8.6 °C 9.0 °C 1018.8 hPa WSW 10.5 km/h 10.5 km/h 98 % 0.3 mm
19:02 8.5 °C 9.0 °C 1018.8 hPa WSW 10.5 km/h 10.5 km/h 98 % 0.3 mm
19:07 8.5 °C 9.0 °C 1018.8 hPa WSW 10.5 km/h 10.5 km/h 98 % 0.3 mm
19:12 8.4 °C 9.0 °C 1018.8 hPa WSW 10.5 km/h 10.5 km/h 98 % 0.3 mm
19:17 8.3 °C 9.0 °C 1018.8 hPa WSW 10.5 km/h 10.5 km/h 98 % 0.3 mm
19:22 8.3 °C 9.0 °C 1018.8 hPa WSW 10.5 km/h 10.5 km/h 98 % 0.3 mm
19:27 8.2 °C 8.0 °C 1018.8 hPa WSW 10.5 km/h 10.5 km/h 98 % 0.0 mm
19:32 8.2 °C 8.0 °C 1018.8 hPa WSW 10.5 km/h 10.5 km/h 98 % 0.0 mm
19:37 8.2 °C 8.0 °C 1018.8 hPa WSW 10.5 km/h 10.5 km/h 98 % 0.0 mm
19:42 8.2 °C 8.0 °C 1018.2 hPa WSW 10.5 km/h 10.5 km/h 98 % 0.0 mm
19:47 8.1 °C 8.0 °C 1018.2 hPa WSW 10.5 km/h 10.5 km/h 98 % 0.0 mm
19:52 8.1 °C 8.0 °C 1018.2 hPa WSW 10.5 km/h 10.5 km/h 98 % 0.0 mm
19:57 8.1 °C 8.0 °C 1018.2 hPa WSW 10.5 km/h 10.5 km/h 98 % 0.0 mm
20:02 8.1 °C 8.0 °C 1018.2 hPa WSW 10.5 km/h 10.5 km/h 98 % 0.0 mm
20:07 8.1 °C 8.0 °C 1018.2 hPa WSW 10.5 km/h 10.5 km/h 98 % 0.0 mm
20:12 8.1 °C 8.0 °C 1018.2 hPa WSW 10.5 km/h 10.5 km/h 98 % 0.0 mm
20:17 8.1 °C 8.0 °C 1018.2 hPa WSW 10.5 km/h 10.5 km/h 98 % 0.0 mm
20:22 8.0 °C 8.0 °C 1018.2 hPa WSW 10.5 km/h 10.5 km/h 98 % 0.0 mm
20:27 8.0 °C 8.0 °C 1018.2 hPa WSW 10.5 km/h 10.5 km/h 98 % 0.0 mm
20:32 8.0 °C 8.0 °C 1018.2 hPa WSW 10.5 km/h 10.5 km/h 98 % 0.0 mm
20:37 8.0 °C 8.0 °C 1018.2 hPa WSW 10.5 km/h 10.5 km/h 98 % 0.0 mm
20:42 8.0 °C 8.0 °C 1018.2 hPa WSW 10.5 km/h 10.5 km/h 98 % 0.0 mm
20:47 7.9 °C 8.0 °C 1018.2 hPa WSW 10.5 km/h 10.5 km/h 98 % 0.0 mm
20:52 7.9 °C 8.0 °C 1018.2 hPa WSW 10.5 km/h 10.5 km/h 98 % 0.0 mm
20:57 7.9 °C 8.0 °C 1018.2 hPa WSW 10.5 km/h 10.5 km/h 98 % 0.0 mm
21:02 7.9 °C 8.0 °C 1018.2 hPa WSW 10.5 km/h 10.5 km/h 98 % 0.0 mm
21:07 7.9 °C 8.0 °C 1018.2 hPa WSW 10.5 km/h 10.5 km/h 98 % 0.0 mm
21:12 7.9 °C 8.0 °C 1018.2 hPa WSW 10.5 km/h 10.5 km/h 98 % 0.0 mm
21:17 7.9 °C 8.0 °C 1018.2 hPa WSW 10.5 km/h 10.5 km/h 98 % 0.0 mm
21:22 7.9 °C 8.0 °C 1018.2 hPa WSW 10.5 km/h 10.5 km/h 98 % 0.0 mm
21:27 7.9 °C 8.0 °C 1018.2 hPa WSW 10.5 km/h 10.5 km/h 98 % 0.0 mm
21:32 7.8 °C 8.0 °C 1018.2 hPa WSW 10.5 km/h 10.5 km/h 98 % 0.0 mm
21:38 7.8 °C 8.0 °C 1018.2 hPa WSW 10.5 km/h 10.5 km/h 98 % 0.0 mm
21:43 7.8 °C 8.0 °C 1018.2 hPa WSW 10.5 km/h 10.5 km/h 98 % 0.0 mm
21:48 7.8 °C 8.0 °C 1018.2 hPa WSW 10.5 km/h 10.5 km/h 98 % 0.0 mm
21:53 7.8 °C 8.0 °C 1018.2 hPa WSW 10.5 km/h 10.5 km/h 98 % 0.0 mm
21:58 7.8 °C 8.0 °C 1018.2 hPa WSW 10.5 km/h 10.5 km/h 98 % 0.0 mm
22:03 7.7 °C 8.0 °C 1018.2 hPa WSW 10.5 km/h 10.5 km/h 98 % 0.5 mm
22:08 7.7 °C 8.0 °C 1018.2 hPa WSW 10.5 km/h 10.5 km/h 98 % 0.5 mm
22:13 7.7 °C 8.0 °C 1018.2 hPa WSW 10.5 km/h 10.5 km/h 98 % 0.5 mm
22:14 7.7 °C 8.0 °C 1018.2 hPa WSW 10.5 km/h 10.5 km/h 98 % 0.5 mm
22:19 7.7 °C 8.0 °C 1018.2 hPa WSW 10.5 km/h 10.5 km/h 98 % 0.5 mm
22:24 7.7 °C 8.0 °C 1018.2 hPa WSW 10.5 km/h 10.5 km/h 98 % 0.5 mm
22:29 7.6 °C 8.0 °C 1018.2 hPa WSW 10.5 km/h 10.5 km/h 98 % 0.5 mm
22:34 7.6 °C 8.0 °C 1018.2 hPa WSW 10.5 km/h 10.5 km/h 98 % 0.5 mm
22:39 7.5 °C 8.0 °C 1018.2 hPa WSW 10.5 km/h 10.5 km/h 98 % 0.5 mm
22:44 7.5 °C 8.0 °C 1016.8 hPa WSW 10.5 km/h 10.5 km/h 98 % 0.5 mm
22:49 7.4 °C 7.0 °C 1016.8 hPa WSW 10.5 km/h 10.5 km/h 98 % 0.5 mm
22:54 7.4 °C 7.0 °C 1016.8 hPa WSW 10.5 km/h 10.5 km/h 98 % 0.5 mm
22:59 7.3 °C 7.0 °C 1018.2 hPa WSW 10.5 km/h 10.5 km/h 98 % 0.5 mm
23:00 7.3 °C 7.0 °C 1018.2 hPa WSW 10.5 km/h 10.5 km/h 98 % 0.0 mm
23:06 7.3 °C 7.0 °C 1018.2 hPa WSW 10.5 km/h 10.5 km/h 98 % 0.0 mm
23:11 7.3 °C 7.0 °C 1018.2 hPa WSW 10.5 km/h 10.5 km/h 98 % 0.0 mm
23:16 7.3 °C 7.0 °C 1018.2 hPa WSW 10.5 km/h 10.5 km/h 98 % 0.0 mm
23:21 7.3 °C 7.0 °C 1018.2 hPa WSW 10.5 km/h 10.5 km/h 98 % 0.0 mm
23:26 7.3 °C 7.0 °C 1018.2 hPa WSW 10.5 km/h 10.5 km/h 98 % 0.0 mm
23:31 7.3 °C 7.0 °C 1018.2 hPa WSW 10.5 km/h 10.5 km/h 98 % 0.0 mm
23:36 7.2 °C 7.0 °C 1018.2 hPa WSW 10.5 km/h 10.5 km/h 98 % 0.0 mm
23:41 7.2 °C 7.0 °C 1016.8 hPa WSW 10.5 km/h 10.5 km/h 98 % 0.0 mm
23:46 7.1 °C 7.0 °C 1016.8 hPa WSW 10.5 km/h 10.5 km/h 98 % 0.0 mm
23:51 7.2 °C 7.0 °C 1016.8 hPa WSW 10.5 km/h 10.5 km/h 98 % 0.0 mm
23:56 7.1 °C 7.0 °C 1016.8 hPa WSW 10.5 km/h 10.5 km/h 98 % 0.0 mm
Le Gheer Warneton
Courtoisie de Weather Underground - 2.25 mb

Mise a jour : 18/12/2017 23:04:15
Généré par Cumulus 1.9.4 (1099)